Friday, October 19, 2018, 12:07 PM EDT
Back to Local

KEEN, Keene, Dillant-hopkins Airport

Location: Keene, NH, United States Lat: 42.9
Local Time: 12:07 PM EDT (16:07 GMT) Lon: -72.267
Time Zone: US/Eastern Elev: 488 ft

Show me the last for .
Show Decoded

2018-10-19 10:56 METAR KEEN 191456Z AUTO 22009KT 10SM CLR 08/01 A3015 RMK AO2 SLP231 T00830006
                 58020 $ =
2018-10-19 09:56 METAR KEEN 191356Z AUTO 00000KT 10SM 04/00 A3017 RMK AO2 SLP238 T00390000 $ =
2018-10-19 08:56 METAR KEEN 191256Z AUTO 00000KT 10SM CLR 01/M01 A3020 RMK AO2 SLP247 T00111006
                 FZRANO $ =
2018-10-19 07:56 METAR KEEN 191156Z AUTO 00000KT 10SM CLR M04/M04 A3021 RMK AO2 SLP250 7////
                 T10391044 11028 21044 56006 FZRANO $ =
2018-10-19 06:56 METAR KEEN 191056Z AUTO 00000KT 10SM CLR M04/M05 A3021 RMK AO2 SLP251 T10441050
                 FZRANO $ =
2018-10-19 05:56 METAR KEEN 190956Z AUTO 00000KT 10SM CLR M04/M04 A3022 RMK AO2 SLP255 T10391044
                 FZRANO $ =
2018-10-19 04:56 METAR KEEN 190856Z AUTO 00000KT 10SM CLR M04/M04 A3022 RMK AO2 SLP256 T10391044
                 58008 FZRANO $ =
2018-10-19 03:56 METAR KEEN 190756Z AUTO 00000KT 10SM FEW038 M04/M05 A3024 RMK AO2 SLP261
                 T10391050 FZRANO $ =
2018-10-19 02:56 METAR KEEN 190656Z AUTO 00000KT 10SM CLR M04/M04 A3024 RMK AO2 SLP264 T10391044
                 FZRANO $ =
2018-10-19 01:56 METAR KEEN 190556Z AUTO M03/M04 A3025 RMK AO2 SLP265 6//// T10331039 10017 21033
                 56005 FZRANO $ =
2018-10-19 00:56 METAR KEEN 190456Z AUTO 21004KT 10SM CLR M03/M04 A3025 RMK AO2 SLP267 T10331044
                 400611033 FZRANO $ =
2018-10-18 23:56 METAR KEEN 190356Z AUTO 17003KT 10SM CLR M03/M04 A3025 RMK AO2 SLP267 T10281039
                 FZRANO $ =
2018-10-18 22:56 METAR KEEN 190256Z AUTO 18004KT 10SM CLR M02/M04 A3026 RMK AO2 SLP270 T10171044
                 50007 FZRANO $ =
2018-10-18 21:56 METAR KEEN 190156Z AUTO 19004KT 10SM CLR 00/M05 A3026 RMK AO2 SLP270 T00001050
                 FZRANO $ =
2018-10-18 20:56 METAR KEEN 190056Z AUTO 18004KT 10SM CLR M01/M04 A3025 RMK AO2 SLP267 T10111044
                 FZRANO $ =
2018-10-18 19:56 METAR KEEN 182356Z AUTO 19003KT 10SM CLR 02/M07 A3024 RMK AO2 SLP263 T00171072
                 10061 20011 51007 FZRANO $ =
2018-10-18 18:56 METAR KEEN 182256Z AUTO VRB04KT 10SM CLR 03/M08 A3024 RMK AO2 SLP261 T00331083 $
                 =
2018-10-18 17:56 METAR KEEN 182156Z AUTO 29006KT 10SM CLR 05/M09 A3023 RMK AO2 SLP258 T00501089 $
                 =
2018-10-18 16:56 METAR KEEN 182056Z AUTO 30006KT 10SM CLR 06/M10 A3022 RMK AO2 SLP256 T00561100
                 55000 $ =
2018-10-18 15:56 METAR KEEN 181956Z AUTO 29010G16KT 10SM 06/M11 A3021 RMK AO2 SLP252 T00561106 $
                 =
2018-10-18 14:56 METAR KEEN 181856Z AUTO 29012G19KT 10SM CLR 06/M10 A3021 RMK AO2 SLP253
                 T00611100 $ =
2018-10-18 13:56 METAR KEEN 181756Z AUTO 34012G17KT 10SM CLR 06/M09 A3022 RMK AO2 SLP256
                 T00561094 10056 20006 58000 $ =

Support USWX by starting your Amazon purchase here.